Worland Municipal Airport
KWRL : now visible

Airfield :











YOU CAN JOIN US ON...

 
LOGIN :

Register | Disclaimer

   EN    FR    IT 

 









Legend :    VFR   Marginal VFR   IFR   Intensive IFR   Very Intensive IFR
Visi :
Ceiling :
>= 8 km
>= 3000ft
5 to 8 km
1000 to 3000 ft
1500m to 5 km
500 to 1000 ft
800 to 1500m
200 to 500 ft
< 800m
< 200 ft
Symbols :   Thunderstorms  Fog  Heavy snow  Heavy precipitations  Wind > 20 kt






- Airport Elevation : 4227 ft
- IATA code : WRL


KWRL - Worland Municipal

CURRENT METAR :
  • 090653Z AUTO 00000KT 10SM CLR 16/06 A3011 RMK AO2 SLP153 T01560056 403280100

EXPIRED METARs :
  • 090553Z AUTO VRB03KT 10SM CLR 17/04 A3009 RMK AO2 SLP147 T01720044 10322 20156 51011
  • 090453Z AUTO 20005KT 10SM CLR 17/07 A3008 RMK AO2 SLP149 T01670072

TAF KWRL
Valid from the 09 at 06:00 until the 10 at 06:00 UTC


090520Z 0906/1006 VRB05KT P6SM SKC
FM091800 35007KT P6SM SKC
FM100300 VRB05KT P6SM SKC
KZLC FIR / North America



MET'MAP, your aeronautical weather chart ! - Copyright ORBIFLY December 2007 - Disclaimer

ORBIFLY MET'MAP TEAM :

Programming & Development : Alexandra Zaïnal
Original concept : Baudouin d'Aumeries
Technical & hardware support : Manuel Goepfert
Assistance : Marc-Olivier Méhu




SOURCES & CREDITS :

   NOAA       Earth
Advisory